Terminal Aerodrome Forecast
Issued by NWS

Current Version | Previous Version | Text Only | Print | Product List | Glossary On
Versions: 1 2 3 4 5 6 7 8 9 10 11 12 13 14 15 16
000
FTUS44 KLIX 292336
TAFMCB
TAF
KMCB 292336Z 3000/3024 17010KT P6SM FEW050 SCT060
     FM300300 19005KT P6SM SKC
     FM300900 VRB03KT 2SM BR SCT030
      TEMPO 3009/3013 1/2SM FG BKN009
     FM301330 27005KT P6SM BKN020
     FM301800 27011KT P6SM VCTS BKN020CB=

USA.gov is the U.S. government's official web portal to all federal, state and local government web resources and services.